createdAt,value
2019-02-15T00:01:29.092Z,17.15
2019-02-15T00:03:56.434Z,21.40
2019-02-15T00:06:24.043Z,13.03
2019-02-15T00:08:51.460Z,18.17
2019-02-15T00:11:19.263Z,17.73
2019-02-15T00:13:46.863Z,16.82
2019-02-15T00:16:14.589Z,20.00
2019-02-15T00:18:51.189Z,24.15
2019-02-15T00:21:25.587Z,17.55
2019-02-15T00:23:53.316Z,18.98
2019-02-15T00:26:21.114Z,23.15
2019-02-15T00:28:48.872Z,18.98
2019-02-15T00:31:19.410Z,19.12
2019-02-15T00:33:47.164Z,19.65
2019-02-15T00:36:14.521Z,18.55
2019-02-15T00:38:42.692Z,15.50
2019-02-15T00:41:11.470Z,17.73
2019-02-15T00:43:39.145Z,18.25
2019-02-15T00:46:20.386Z,19.25
2019-02-15T00:48:48.077Z,13.75
2019-02-15T00:51:47.218Z,16.60
2019-02-15T00:54:34.573Z,20.23
2019-02-15T00:57:20.480Z,19.20
2019-02-15T01:00:19.792Z,21.73
2019-02-15T01:03:15.822Z,20.75
2019-02-15T01:06:14.855Z,19.07
2019-02-15T01:08:55.614Z,23.15
2019-02-15T01:11:33.143Z,17.73
2019-02-15T01:14:00.475Z,23.05
2019-02-15T01:16:27.862Z,22.40
2019-02-15T01:18:55.417Z,20.50
2019-02-15T01:21:22.898Z,18.77
2019-02-15T01:23:50.350Z,17.30
2019-02-15T01:26:34.565Z,20.27
2019-02-15T01:29:22.885Z,14.38
2019-02-15T01:32:12.748Z,12.20
2019-02-15T01:35:06.092Z,13.70
2019-02-15T01:37:40.076Z,15.45
2019-02-15T01:40:27.118Z,15.78
2019-02-15T01:43:19.698Z,14.28
2019-02-15T01:45:53.452Z,12.35
2019-02-15T01:48:20.982Z,15.00
2019-02-15T01:50:48.743Z,16.77
2019-02-15T01:53:16.454Z,15.60
2019-02-15T01:55:44.264Z,19.05
2019-02-15T01:58:11.689Z,15.32
2019-02-15T02:00:39.260Z,21.15
2019-02-15T02:03:06.636Z,18.55
2019-02-15T02:05:34.466Z,16.25
2019-02-15T02:08:02.400Z,18.02
2019-02-15T02:10:30.209Z,15.72
2019-02-15T02:12:57.831Z,15.90
2019-02-15T02:15:25.143Z,17.30
2019-02-15T02:17:52.650Z,15.70
2019-02-15T02:20:20.126Z,16.70
2019-02-15T02:22:47.509Z,11.10
2019-02-15T02:25:15.126Z,16.87
2019-02-15T02:27:42.637Z,13.10
2019-02-15T02:30:10.445Z,10.18
2019-02-15T02:32:37.983Z,11.80
2019-02-15T02:35:05.634Z,8.98
2019-02-15T02:37:33.091Z,12.70
2019-02-15T02:40:00.882Z,13.93
2019-02-15T02:42:28.342Z,12.43
2019-02-15T02:44:56.133Z,12.05
2019-02-15T02:47:24.412Z,12.45
2019-02-15T02:49:52.082Z,16.52
2019-02-15T02:52:19.407Z,14.80
2019-02-15T02:54:46.986Z,13.98
2019-02-15T02:57:14.651Z,12.07
2019-02-15T02:59:42.150Z,17.77
2019-02-15T03:02:09.549Z,17.10
2019-02-15T03:04:37.059Z,13.05
2019-02-15T03:07:04.973Z,13.10
2019-02-15T03:09:33.709Z,13.45
2019-02-15T03:12:01.130Z,14.20
2019-02-15T03:14:28.649Z,15.40
2019-02-15T03:16:56.216Z,16.25
2019-02-15T03:19:23.755Z,16.37
2019-02-15T03:21:51.439Z,16.20
2019-02-15T03:24:19.093Z,12.50
2019-02-15T03:26:46.526Z,17.82
2019-02-15T03:29:14.011Z,13.95
2019-02-15T03:31:41.360Z,14.75
2019-02-15T03:34:08.825Z,16.15
2019-02-15T03:37:02.164Z,17.00
2019-02-15T03:39:49.207Z,12.80
2019-02-15T03:42:16.947Z,19.57
2019-02-15T03:44:44.413Z,13.05
2019-02-15T03:47:13.692Z,16.20
2019-02-15T03:49:41.216Z,17.32
2019-02-15T03:52:08.855Z,14.23
2019-02-15T03:54:36.787Z,20.17
2019-02-15T03:57:04.296Z,23.75
2019-02-15T03:59:31.808Z,24.10
2019-02-15T04:01:59.143Z,16.42
2019-02-15T04:04:26.530Z,14.95
2019-02-15T04:06:54.148Z,15.68
2019-02-15T04:09:21.662Z,15.78
2019-02-15T04:11:49.091Z,12.63
2019-02-15T04:14:16.614Z,15.40
2019-02-15T04:16:43.944Z,15.58
2019-02-15T04:19:11.346Z,20.68
2019-02-15T04:21:38.931Z,19.65
2019-02-15T04:24:06.304Z,17.40
2019-02-15T04:26:33.810Z,16.52
2019-02-15T04:29:01.433Z,15.53
2019-02-15T04:31:29.098Z,16.45
2019-02-15T04:33:56.763Z,17.32
2019-02-15T04:36:24.100Z,16.87
2019-02-15T04:38:51.483Z,12.78
2019-02-15T04:41:18.820Z,13.22
2019-02-15T04:43:46.297Z,15.35
2019-02-15T04:46:13.776Z,16.77
2019-02-15T04:48:41.512Z,16.77
2019-02-15T04:51:09.259Z,25.00
2019-02-15T04:53:36.708Z,19.07
2019-02-15T04:56:04.515Z,18.60
2019-02-15T04:58:32.013Z,17.80
2019-02-15T05:00:59.499Z,20.85
2019-02-15T05:03:27.014Z,28.55
2019-02-15T05:05:54.718Z,19.02
2019-02-15T05:08:22.815Z,15.28
2019-02-15T05:10:50.670Z,13.28
2019-02-15T05:13:18.417Z,14.70
2019-02-15T05:15:46.113Z,16.40
2019-02-15T05:18:13.736Z,14.83
2019-02-15T05:20:41.663Z,12.58
2019-02-15T05:23:10.489Z,15.53
2019-02-15T05:25:38.031Z,13.22
2019-02-15T05:28:05.355Z,14.68
2019-02-15T05:30:32.704Z,19.77
2019-02-15T05:33:00.067Z,12.47
2019-02-15T05:35:28.327Z,16.50
2019-02-15T05:37:55.681Z,13.35
2019-02-15T05:40:23.082Z,18.92
2019-02-15T05:42:50.548Z,14.38
2019-02-15T05:45:18.370Z,16.40
2019-02-15T05:47:46.214Z,14.13
2019-02-15T05:50:14.118Z,20.32
2019-02-15T05:52:41.459Z,18.10
2019-02-15T05:55:08.946Z,11.80
2019-02-15T05:57:36.295Z,15.53
2019-02-15T06:00:04.139Z,15.38
2019-02-15T06:02:31.798Z,15.50
2019-02-15T06:04:59.348Z,13.08
2019-02-15T06:07:27.202Z,16.05
2019-02-15T06:09:54.680Z,15.90
2019-02-15T06:12:22.175Z,13.03
2019-02-15T06:14:49.925Z,10.35
2019-02-15T06:17:18.060Z,14.10
2019-02-15T06:19:45.434Z,14.15
2019-02-15T06:22:12.784Z,17.00
2019-02-15T06:24:40.292Z,19.70
2019-02-15T06:27:07.945Z,21.00
2019-02-15T06:29:35.444Z,17.07
2019-02-15T06:32:02.821Z,16.12
2019-02-15T06:34:30.550Z,19.52
2019-02-15T06:36:57.916Z,18.57
2019-02-15T06:39:25.458Z,22.65
2019-02-15T06:41:53.080Z,43.33
2019-02-15T06:44:20.683Z,57.73
2019-02-15T06:46:48.185Z,55.83
2019-02-15T06:49:15.820Z,57.73
2019-02-15T06:51:43.190Z,51.75
2019-02-15T06:54:10.798Z,43.02
2019-02-15T06:56:38.302Z,31.17
2019-02-15T06:59:35.325Z,27.07
2019-02-15T07:02:28.519Z,26.85
2019-02-15T07:05:16.242Z,77.08
2019-02-15T07:07:44.090Z,87.17
2019-02-15T07:10:11.527Z,91.12
2019-02-15T07:12:39.303Z,87.20
2019-02-15T07:15:06.835Z,83.82
2019-02-15T07:17:34.407Z,78.17
2019-02-15T07:20:01.863Z,56.77
2019-02-15T07:22:30.305Z,53.45
2019-02-15T07:24:58.009Z,59.13
2019-02-15T07:27:25.831Z,49.38
2019-02-15T07:29:53.177Z,53.63
2019-02-15T07:32:20.603Z,34.70
2019-02-15T07:34:48.182Z,36.42
2019-02-15T07:37:15.574Z,23.32
2019-02-15T07:39:42.951Z,18.73
2019-02-15T07:42:10.476Z,17.20
2019-02-15T07:44:38.200Z,21.50
2019-02-15T07:47:05.683Z,20.08
2019-02-15T07:49:33.624Z,20.92
2019-02-15T07:52:01.089Z,20.00
2019-02-15T07:54:28.624Z,19.07
2019-02-15T07:56:56.562Z,20.95
2019-02-15T07:59:24.055Z,22.75
2019-02-15T08:01:51.526Z,23.15
2019-02-15T08:04:19.023Z,14.18
2019-02-15T08:06:46.563Z,17.02
2019-02-15T08:09:14.398Z,18.37
2019-02-15T08:11:42.043Z,22.15
2019-02-15T08:14:14.867Z,18.30
2019-02-15T08:16:39.756Z,21.75
2019-02-15T08:19:07.232Z,15.43
2019-02-15T08:21:34.894Z,13.98
2019-02-15T08:24:02.420Z,18.32
2019-02-15T08:26:30.211Z,15.72
2019-02-15T08:28:57.995Z,15.30
2019-02-15T08:31:25.616Z,15.13
2019-02-15T08:33:53.792Z,18.12
2019-02-15T08:36:21.153Z,23.35
2019-02-15T08:38:48.625Z,16.27
2019-02-15T08:41:16.167Z,15.40
2019-02-15T08:43:44.252Z,16.97
2019-02-15T08:46:11.635Z,16.17
2019-02-15T08:48:45.862Z,17.17
2019-02-15T08:51:09.483Z,21.80
2019-02-15T08:53:36.861Z,22.35
2019-02-15T08:56:04.502Z,17.10
2019-02-15T08:58:32.304Z,16.32
2019-02-15T09:01:00.008Z,19.05
2019-02-15T09:03:27.660Z,20.85
2019-02-15T09:05:55.917Z,25.27
2019-02-15T09:08:23.322Z,19.42
2019-02-15T09:10:51.090Z,15.93
2019-02-15T09:13:19.052Z,16.37
2019-02-15T09:15:46.796Z,22.50
2019-02-15T09:18:14.966Z,20.27
2019-02-15T09:20:42.871Z,21.95
2019-02-15T09:23:12.254Z,16.35
2019-02-15T09:25:40.109Z,17.77
2019-02-15T09:28:16.534Z,15.63
2019-02-15T09:30:47.028Z,20.17
2019-02-15T09:33:16.803Z,20.95
2019-02-15T09:35:44.462Z,17.67
2019-02-15T09:38:12.582Z,23.65
2019-02-15T09:40:40.047Z,20.70
2019-02-15T09:43:07.506Z,21.82
2019-02-15T09:45:35.002Z,19.87
2019-02-15T09:48:02.700Z,21.93
2019-02-15T09:50:30.610Z,21.52
2019-02-15T09:52:58.104Z,20.25
2019-02-15T09:55:25.556Z,19.60
2019-02-15T09:57:53.142Z,21.40
2019-02-15T10:00:20.622Z,23.80
2019-02-15T10:02:48.146Z,21.70
2019-02-15T10:05:17.258Z,36.17
2019-02-15T10:07:45.334Z,20.70
2019-02-15T10:10:13.380Z,19.90
2019-02-15T10:12:40.881Z,19.23
2019-02-15T10:15:08.838Z,21.37
2019-02-15T10:17:36.160Z,17.35
2019-02-15T10:20:04.212Z,20.30
2019-02-15T10:22:32.309Z,19.92
2019-02-15T10:25:01.113Z,16.37
2019-02-15T10:27:28.581Z,22.00
2019-02-15T10:29:56.024Z,17.03
2019-02-15T10:32:23.411Z,26.35
2019-02-15T10:34:50.788Z,21.00
2019-02-15T10:37:18.504Z,23.10
2019-02-15T10:39:46.002Z,20.85
2019-02-15T10:42:13.604Z,21.55
2019-02-15T10:44:41.090Z,22.95
2019-02-15T10:47:14.342Z,20.77
2019-02-15T10:49:38.513Z,27.20
2019-02-15T10:52:05.989Z,22.73
2019-02-15T10:54:33.445Z,22.50
2019-02-15T10:57:00.894Z,25.48
2019-02-15T10:59:28.637Z,28.02
2019-02-15T11:01:56.456Z,21.60
2019-02-15T11:04:24.060Z,23.25
2019-02-15T11:06:51.777Z,32.42
2019-02-15T11:09:19.264Z,22.07
2019-02-15T11:11:47.028Z,24.02
2019-02-15T11:14:14.764Z,24.87
2019-02-15T11:16:47.295Z,31.97
2019-02-15T11:19:11.428Z,24.80
2019-02-15T11:21:38.834Z,26.87
2019-02-15T11:24:06.678Z,32.40
2019-02-15T11:26:34.112Z,24.80
2019-02-15T11:29:01.447Z,26.97
2019-02-15T11:31:28.867Z,24.70
2019-02-15T11:33:56.598Z,25.45
2019-02-15T11:36:24.257Z,27.67
2019-02-15T11:38:52.883Z,31.23
2019-02-15T11:41:20.416Z,25.80
2019-02-15T11:43:48.278Z,27.77
2019-02-15T11:46:15.832Z,28.80
2019-02-15T11:48:43.572Z,23.90
2019-02-15T11:51:11.196Z,28.67
2019-02-15T11:53:38.722Z,35.63
2019-02-15T11:56:06.219Z,29.13
2019-02-15T11:58:33.757Z,26.63
2019-02-15T12:01:02.188Z,24.33
2019-02-15T12:03:29.570Z,34.37
2019-02-15T12:05:57.641Z,26.37
2019-02-15T12:08:25.229Z,24.03
2019-02-15T12:10:52.754Z,27.83
2019-02-15T12:13:20.389Z,33.80
2019-02-15T12:15:47.964Z,21.60
2019-02-15T12:18:15.362Z,31.53
2019-02-15T12:20:42.843Z,28.03
2019-02-15T12:23:10.534Z,28.33
2019-02-15T12:25:38.164Z,29.63
2019-02-15T12:28:05.548Z,27.77
2019-02-15T12:30:33.046Z,30.13
2019-02-15T12:33:00.786Z,27.60
2019-02-15T12:35:28.857Z,28.50
2019-02-15T12:37:56.671Z,27.57
2019-02-15T12:40:24.013Z,24.77
2019-02-15T12:42:51.779Z,23.27
2019-02-15T12:45:19.248Z,24.53
2019-02-15T12:47:47.315Z,34.83
2019-02-15T12:50:14.971Z,31.10
2019-02-15T12:52:42.389Z,28.00
2019-02-15T12:55:10.101Z,25.83
2019-02-15T12:57:37.636Z,26.23
2019-02-15T13:00:06.991Z,21.37
2019-02-15T13:02:34.822Z,29.00
2019-02-15T13:05:02.914Z,21.70
2019-02-15T13:07:31.767Z,26.60
2019-02-15T13:09:59.796Z,18.93
2019-02-15T13:12:27.514Z,21.97
2019-02-15T13:14:55.240Z,22.33
2019-02-15T13:17:24.730Z,23.47
2019-02-15T13:19:52.396Z,20.83
2019-02-15T13:28:56.657Z,29.00
2019-02-15T13:34:20.768Z,23.90
2019-02-15T13:36:48.182Z,28.83
2019-02-15T13:39:15.640Z,23.50
2019-02-15T13:41:43.312Z,22.53
2019-02-15T13:44:10.834Z,26.60
2019-02-15T13:46:39.456Z,29.27
2019-02-15T13:49:07.415Z,25.20
2019-02-15T13:51:35.168Z,21.03
2019-02-15T13:54:02.676Z,22.63
2019-02-15T13:56:30.379Z,27.70
2019-02-15T13:58:58.548Z,27.40
2019-02-15T14:01:26.005Z,20.77
2019-02-15T14:03:54.014Z,26.30
2019-02-15T14:06:21.696Z,18.47
2019-02-15T14:08:49.468Z,20.60
2019-02-15T14:11:16.988Z,29.90
2019-02-15T14:13:45.492Z,20.20
2019-02-15T14:16:12.894Z,20.53
2019-02-15T14:18:40.348Z,27.30
2019-02-15T14:21:08.075Z,18.87
2019-02-15T14:23:36.031Z,21.77
2019-02-15T14:26:03.352Z,20.37
2019-02-15T14:28:30.737Z,21.23
2019-02-15T14:30:58.056Z,19.73
2019-02-15T14:33:25.596Z,23.03
2019-02-15T14:35:52.981Z,19.60
2019-02-15T14:38:20.646Z,19.13
2019-02-15T14:40:48.549Z,22.17
2019-02-15T14:43:16.005Z,17.60
2019-02-15T14:45:43.548Z,21.87
2019-02-15T14:48:11.020Z,20.20
2019-02-15T14:50:38.903Z,23.50
2019-02-15T14:53:07.248Z,24.40
2019-02-15T14:55:35.062Z,22.77
2019-02-15T14:58:02.680Z,27.10
2019-02-15T15:00:30.433Z,27.03
2019-02-15T15:02:58.327Z,26.07
2019-02-15T15:05:25.858Z,22.20
2019-02-15T15:07:53.306Z,27.17
2019-02-15T15:10:21.598Z,26.90
2019-02-15T15:12:49.306Z,26.50
2019-02-15T15:15:17.193Z,26.70
2019-02-15T15:17:44.731Z,32.20
2019-02-15T15:20:12.424Z,26.90
2019-02-15T15:22:40.395Z,34.73
2019-02-15T15:25:08.997Z,28.67
2019-02-15T15:27:36.683Z,28.57
2019-02-15T15:30:04.774Z,29.77
2019-02-15T15:32:32.363Z,28.43
2019-02-15T15:35:00.221Z,31.37
2019-02-15T15:37:27.714Z,31.60
2019-02-15T15:39:55.546Z,29.00
2019-02-15T15:42:22.910Z,27.30
2019-02-15T15:44:50.425Z,31.87
2019-02-15T15:47:17.982Z,30.13
2019-02-15T15:49:46.227Z,26.03
2019-02-15T15:52:14.099Z,33.80
2019-02-15T15:54:42.268Z,31.20
2019-02-15T15:57:09.864Z,29.13
2019-02-15T15:59:37.766Z,29.33
2019-02-15T16:02:05.857Z,29.77
2019-02-15T16:04:33.838Z,31.87
2019-02-15T16:07:01.355Z,35.90
2019-02-15T16:09:28.953Z,29.60
2019-02-15T16:11:56.347Z,34.63
2019-02-15T16:14:24.932Z,37.97
2019-02-15T16:16:52.473Z,32.03
2019-02-15T16:19:20.136Z,41.93
2019-02-15T16:21:47.624Z,33.53
2019-02-15T16:24:14.970Z,41.87
2019-02-15T16:26:42.371Z,35.20
2019-02-15T16:29:09.872Z,36.30
2019-02-15T16:31:37.589Z,37.73
2019-02-15T16:34:05.317Z,33.37
2019-02-15T16:36:32.824Z,45.00
2019-02-15T16:39:00.990Z,35.67
2019-02-15T16:41:28.846Z,39.63
2019-02-15T16:43:56.307Z,30.40
2019-02-15T16:46:23.755Z,33.10
2019-02-15T16:48:51.548Z,30.13
2019-02-15T16:51:19.031Z,32.57
2019-02-15T16:53:46.764Z,30.50
2019-02-15T16:56:14.528Z,32.87
2019-02-15T16:58:42.286Z,34.20
2019-02-15T17:01:10.061Z,29.30
2019-02-15T17:03:37.558Z,31.07
2019-02-15T17:06:05.083Z,30.40
2019-02-15T17:08:33.457Z,23.60
2019-02-15T17:11:01.103Z,35.63
2019-02-15T17:13:28.490Z,27.37
2019-02-15T17:15:55.910Z,24.53
2019-02-15T17:18:23.234Z,29.13
2019-02-15T17:20:50.984Z,25.83
2019-02-15T17:23:18.736Z,31.90
2019-02-15T17:25:46.346Z,33.07
2019-02-15T17:28:14.191Z,34.93
2019-02-15T17:30:41.659Z,31.43
2019-02-15T17:33:10.148Z,27.70
2019-02-15T17:35:38.219Z,27.37
2019-02-15T17:38:05.786Z,38.10
2019-02-15T17:40:33.990Z,45.60
2019-02-15T17:43:02.010Z,51.40
2019-02-15T17:45:31.504Z,52.73
2019-02-15T17:48:00.735Z,49.13
2019-02-15T17:50:28.273Z,44.20
2019-02-15T17:52:55.865Z,44.17
2019-02-15T17:55:23.782Z,37.37
2019-02-15T17:57:51.323Z,48.07
2019-02-15T18:00:21.212Z,49.07
2019-02-15T18:02:48.794Z,42.87
2019-02-15T18:05:16.310Z,47.77
2019-02-15T18:07:46.115Z,32.40
2019-02-15T18:10:13.891Z,35.97
2019-02-15T18:12:41.658Z,33.00
2019-02-15T18:15:09.135Z,42.60
2019-02-15T18:17:36.620Z,46.80
2019-02-15T18:20:04.319Z,51.77
2019-02-15T18:22:31.671Z,54.13
2019-02-15T18:24:59.758Z,46.00
2019-02-15T18:27:27.810Z,51.63
2019-02-15T18:29:55.411Z,54.00
2019-02-15T18:32:23.265Z,47.33
2019-02-15T18:34:51.135Z,37.37
2019-02-15T18:37:20.329Z,40.40
2019-02-15T18:39:47.686Z,28.63
2019-02-15T18:42:15.502Z,66.70
2019-02-15T18:44:43.001Z,88.67
2019-02-15T18:47:10.532Z,91.90
2019-02-15T18:49:38.240Z,62.83
2019-02-15T18:52:06.098Z,48.93
2019-02-15T18:54:34.160Z,40.00
2019-02-15T18:57:01.743Z,37.33
2019-02-15T18:59:29.688Z,37.80
2019-02-15T19:01:58.211Z,44.73
2019-02-15T19:04:25.735Z,48.00
2019-02-15T19:06:53.547Z,45.33
2019-02-15T19:09:20.949Z,39.60
2019-02-15T19:11:48.516Z,36.17
2019-02-15T19:14:15.903Z,31.20
2019-02-15T19:16:43.313Z,28.70
2019-02-15T19:19:10.855Z,29.77
2019-02-15T19:21:38.352Z,29.97
2019-02-15T19:24:06.014Z,29.53
2019-02-15T19:26:34.290Z,41.80
2019-02-15T19:29:02.903Z,54.57
2019-02-15T19:31:30.524Z,57.40
2019-02-15T19:33:58.311Z,57.27
2019-02-15T19:36:26.066Z,52.73
2019-02-15T19:38:53.427Z,40.80
2019-02-15T19:41:20.988Z,40.13
2019-02-15T19:43:48.629Z,61.40
2019-02-15T19:46:16.288Z,61.80
2019-02-15T19:48:44.380Z,69.03
2019-02-15T19:51:13.631Z,89.17
2019-02-15T19:53:41.254Z,87.00
2019-02-15T19:56:08.929Z,59.47
2019-02-15T19:58:36.502Z,47.90
2019-02-15T20:01:04.095Z,41.30
2019-02-15T20:03:32.317Z,40.33
2019-02-15T20:06:00.304Z,36.10
2019-02-15T20:08:28.222Z,36.73
2019-02-15T20:10:55.908Z,31.23
2019-02-15T20:13:23.610Z,29.00
2019-02-15T20:15:51.121Z,37.10
2019-02-15T20:18:18.684Z,37.07
2019-02-15T20:20:47.030Z,33.60
2019-02-15T20:23:14.873Z,29.20
2019-02-15T20:25:42.521Z,26.97
2019-02-15T20:28:14.052Z,28.10
2019-02-15T20:30:39.741Z,27.80
2019-02-15T20:33:07.176Z,34.50
2019-02-15T20:35:35.600Z,34.67
2019-02-15T20:38:03.581Z,26.10
2019-02-15T20:40:31.717Z,28.00
2019-02-15T20:42:59.711Z,24.17
2019-02-15T20:45:27.896Z,23.40
2019-02-15T20:47:56.032Z,25.60
2019-02-15T20:50:24.024Z,23.43
2019-02-15T20:52:51.615Z,23.07
2019-02-15T20:55:19.649Z,23.90
2019-02-15T20:57:47.266Z,27.00
2019-02-15T21:00:25.003Z,23.40
2019-02-15T21:02:52.760Z,26.00
2019-02-15T21:05:20.871Z,25.73
2019-02-15T21:07:49.920Z,26.00
2019-02-15T21:10:18.371Z,38.40
2019-02-15T21:12:46.104Z,69.92
2019-02-15T21:15:13.894Z,58.78
2019-02-15T21:17:41.782Z,43.73
2019-02-15T21:20:10.148Z,59.48
2019-02-15T21:22:38.294Z,58.58
2019-02-15T21:25:07.141Z,58.95
2019-02-15T21:27:34.823Z,63.85
2019-02-15T21:30:02.444Z,58.13
2019-02-15T21:32:30.514Z,41.00
2019-02-15T21:34:58.268Z,44.40
2019-02-15T21:37:25.942Z,39.15
2019-02-15T21:39:53.428Z,26.20
2019-02-15T21:42:20.855Z,26.45
2019-02-15T21:44:48.219Z,25.75
2019-02-15T21:47:15.871Z,29.85
2019-02-15T21:49:43.413Z,32.73
2019-02-15T21:52:11.104Z,26.10
2019-02-15T21:54:38.440Z,26.85
2019-02-15T21:57:05.800Z,22.87
2019-02-15T21:59:33.218Z,20.30
2019-02-15T22:02:00.680Z,24.03
2019-02-15T22:04:28.486Z,34.93
2019-02-15T22:06:56.559Z,35.30
2019-02-15T22:09:24.332Z,38.95
2019-02-15T22:11:52.188Z,46.75
2019-02-15T22:14:19.874Z,49.27
2019-02-15T22:16:47.715Z,42.73
2019-02-15T22:19:15.135Z,41.65
2019-02-15T22:21:42.646Z,38.20
2019-02-15T22:24:10.038Z,32.25
2019-02-15T22:26:37.942Z,27.32
2019-02-15T22:29:05.610Z,22.95
2019-02-15T22:31:33.366Z,22.13
2019-02-15T22:34:00.855Z,24.07
2019-02-15T22:36:28.393Z,25.70
2019-02-15T22:38:55.932Z,33.10
2019-02-15T22:41:23.322Z,20.45
2019-02-15T22:43:50.882Z,24.98
2019-02-15T22:46:19.130Z,26.73
2019-02-15T22:48:46.485Z,30.60
2019-02-15T22:51:13.983Z,37.60
2019-02-15T22:53:41.387Z,35.52
2019-02-15T22:56:09.045Z,36.35
2019-02-15T22:58:36.741Z,32.90
2019-02-15T23:01:08.039Z,34.50
2019-02-15T23:03:36.166Z,31.55
2019-02-15T23:06:03.894Z,26.62
2019-02-15T23:08:32.472Z,27.20
2019-02-15T23:10:59.832Z,28.27
2019-02-15T23:13:27.322Z,16.77
2019-02-15T23:15:54.955Z,24.05
2019-02-15T23:18:22.688Z,23.45
2019-02-15T23:20:50.096Z,17.65
2019-02-15T23:23:17.753Z,17.57
2019-02-15T23:25:45.105Z,18.07
2019-02-15T23:28:12.469Z,20.70
2019-02-15T23:30:40.158Z,16.32
2019-02-15T23:33:07.667Z,24.15
2019-02-15T23:35:34.993Z,17.80
2019-02-15T23:38:02.499Z,26.48
2019-02-15T23:40:30.006Z,22.67
2019-02-15T23:42:57.924Z,16.52
2019-02-15T23:45:25.589Z,22.95
2019-02-15T23:47:52.964Z,21.57
2019-02-15T23:50:20.520Z,22.02
2019-02-15T23:52:48.069Z,18.48
2019-02-15T23:55:15.599Z,15.65
2019-02-15T23:57:43.376Z,16.15
